sensor_id;sensor_type;location;lat;lon;timestamp;P1;durP1;ratioP1;P2;durP2;ratioP2
55720;SDS011;41626;53.098;6.168;2022-09-29T00:00:30;7.40;;;5.85;;
55720;SDS011;41626;53.098;6.168;2022-09-29T00:02:55;6.88;;;6.18;;
55720;SDS011;41626;53.098;6.168;2022-09-29T00:05:21;8.45;;;5.65;;
55720;SDS011;41626;53.098;6.168;2022-09-29T00:07:47;5.20;;;4.70;;
55720;SDS011;41626;53.098;6.168;2022-09-29T00:10:13;5.82;;;5.22;;
55720;SDS011;41626;53.098;6.168;2022-09-29T00:12:38;6.63;;;5.45;;
55720;SDS011;41626;53.098;6.168;2022-09-29T00:15:04;6.38;;;5.78;;
55720;SDS011;41626;53.098;6.168;2022-09-29T00:17:31;5.65;;;4.95;;
55720;SDS011;41626;53.098;6.168;2022-09-29T00:19:57;7.22;;;5.78;;
55720;SDS011;41626;53.098;6.168;2022-09-29T00:22:23;10.75;;;6.70;;
55720;SDS011;41626;53.098;6.168;2022-09-29T00:24:48;7.43;;;5.05;;
55720;SDS011;41626;53.098;6.168;2022-09-29T00:27:17;12.18;;;6.57;;
55720;SDS011;41626;53.098;6.168;2022-09-29T00:29:43;8.95;;;7.00;;
55720;SDS011;41626;53.098;6.168;2022-09-29T00:32:09;6.57;;;5.05;;
55720;SDS011;41626;53.098;6.168;2022-09-29T00:34:35;4.60;;;4.20;;
55720;SDS011;41626;53.098;6.168;2022-09-29T00:37:01;4.93;;;4.45;;
55720;SDS011;41626;53.098;6.168;2022-09-29T00:39:27;5.30;;;4.78;;
55720;SDS011;41626;53.098;6.168;2022-09-29T00:41:53;7.43;;;5.35;;
55720;SDS011;41626;53.098;6.168;2022-09-29T00:46:51;7.93;;;5.72;;
55720;SDS011;41626;53.098;6.168;2022-09-29T00:49:41;8.13;;;5.18;;
55720;SDS011;41626;53.098;6.168;2022-09-29T00:54:52;6.38;;;5.50;;
55720;SDS011;41626;53.098;6.168;2022-09-29T00:57:25;5.40;;;4.90;;
55720;SDS011;41626;53.098;6.168;2022-09-29T01:00:03;5.95;;;4.75;;
55720;SDS011;41626;53.098;6.168;2022-09-29T01:02:35;6.60;;;5.93;;
55720;SDS011;41626;53.098;6.168;2022-09-29T01:05:05;6.68;;;5.47;;
55720;SDS011;41626;53.098;6.168;2022-09-29T01:07:36;5.28;;;4.75;;
55720;SDS011;41626;53.098;6.168;2022-09-29T01:10:02;7.20;;;5.75;;
55720;SDS011;41626;53.098;6.168;2022-09-29T01:12:30;22.42;;;7.07;;
55720;SDS011;41626;53.098;6.168;2022-09-29T01:14:55;46.30;;;6.78;;
55720;SDS011;41626;53.098;6.168;2022-09-29T01:17:21;90.88;;;8.45;;
55720;SDS011;41626;53.098;6.168;2022-09-29T01:31:03;78.60;;;9.00;;
55720;SDS011;41626;53.098;6.168;2022-09-29T01:33:59;40.63;;;8.57;;
55720;SDS011;41626;53.098;6.168;2022-09-29T01:36:53;36.47;;;6.40;;
55720;SDS011;41626;53.098;6.168;2022-09-29T01:39:31;49.67;;;6.28;;
55720;SDS011;41626;53.098;6.168;2022-09-29T01:42:02;58.60;;;7.28;;
55720;SDS011;41626;53.098;6.168;2022-09-29T01:44:47;26.40;;;5.95;;
55720;SDS011;41626;53.098;6.168;2022-09-29T01:47:29;19.38;;;6.93;;
55720;SDS011;41626;53.098;6.168;2022-09-29T01:50:05;68.78;;;8.70;;
55720;SDS011;41626;53.098;6.168;2022-09-29T01:52:37;46.95;;;7.45;;
55720;SDS011;41626;53.098;6.168;2022-09-29T01:55:17;38.90;;;6.13;;
55720;SDS011;41626;53.098;6.168;2022-09-29T01:57:52;46.88;;;7.43;;
55720;SDS011;41626;53.098;6.168;2022-09-29T02:00:19;27.80;;;5.70;;
55720;SDS011;41626;53.098;6.168;2022-09-29T02:02:55;45.72;;;7.72;;
55720;SDS011;41626;53.098;6.168;2022-09-29T02:05:26;35.45;;;5.80;;
55720;SDS011;41626;53.098;6.168;2022-09-29T02:07:57;16.70;;;5.78;;
55720;SDS011;41626;53.098;6.168;2022-09-29T02:10:33;20.50;;;5.57;;
55720;SDS011;41626;53.098;6.168;2022-09-29T02:13:05;48.97;;;7.35;;
55720;SDS011;41626;53.098;6.168;2022-09-29T02:15:34;44.97;;;6.53;;
55720;SDS011;41626;53.098;6.168;2022-09-29T02:18:09;66.32;;;6.82;;
55720;SDS011;41626;53.098;6.168;2022-09-29T02:20:38;30.52;;;6.53;;
55720;SDS011;41626;53.098;6.168;2022-09-29T02:23:04;33.53;;;6.45;;
55720;SDS011;41626;53.098;6.168;2022-09-29T02:25:30;82.35;;;9.45;;
55720;SDS011;41626;53.098;6.168;2022-09-29T02:28:01;51.65;;;6.60;;
55720;SDS011;41626;53.098;6.168;2022-09-29T02:30:28;31.35;;;6.28;;
55720;SDS011;41626;53.098;6.168;2022-09-29T02:32:53;29.60;;;8.10;;
55720;SDS011;41626;53.098;6.168;2022-09-29T02:35:19;36.90;;;6.65;;
55720;SDS011;41626;53.098;6.168;2022-09-29T02:40:34;37.80;;;7.32;;
55720;SDS011;41626;53.098;6.168;2022-09-29T02:43:22;51.67;;;6.88;;
55720;SDS011;41626;53.098;6.168;2022-09-29T02:51:30;11.32;;;5.57;;
55720;SDS011;41626;53.098;6.168;2022-09-29T02:59:57;28.33;;;5.45;;
55720;SDS011;41626;53.098;6.168;2022-09-29T03:05:09;40.30;;;5.47;;
55720;SDS011;41626;53.098;6.168;2022-09-29T03:07:37;21.60;;;5.75;;
55720;SDS011;41626;53.098;6.168;2022-09-29T03:10:04;12.50;;;5.13;;
55720;SDS011;41626;53.098;6.168;2022-09-29T03:12:31;8.05;;;4.65;;
55720;SDS011;41626;53.098;6.168;2022-09-29T03:14:57;6.78;;;4.80;;
55720;SDS011;41626;53.098;6.168;2022-09-29T03:17:22;6.88;;;4.40;;
55720;SDS011;41626;53.098;6.168;2022-09-29T03:19:48;4.80;;;4.32;;
55720;SDS011;41626;53.098;6.168;2022-09-29T03:22:13;5.10;;;4.60;;
55720;SDS011;41626;53.098;6.168;2022-09-29T03:24:39;7.28;;;5.65;;
55720;SDS011;41626;53.098;6.168;2022-09-29T03:27:06;20.35;;;5.15;;
55720;SDS011;41626;53.098;6.168;2022-09-29T03:29:33;25.52;;;4.75;;
55720;SDS011;41626;53.098;6.168;2022-09-29T03:32:00;57.90;;;6.25;;
55720;SDS011;41626;53.098;6.168;2022-09-29T03:34:26;54.95;;;6.85;;
55720;SDS011;41626;53.098;6.168;2022-09-29T03:36:51;13.55;;;3.80;;
55720;SDS011;41626;53.098;6.168;2022-09-29T03:39:17;19.92;;;4.50;;
55720;SDS011;41626;53.098;6.168;2022-09-29T03:41:43;35.10;;;5.72;;
55720;SDS011;41626;53.098;6.168;2022-09-29T03:44:09;10.63;;;4.25;;
55720;SDS011;41626;53.098;6.168;2022-09-29T03:46:34;49.00;;;6.47;;
55720;SDS011;41626;53.098;6.168;2022-09-29T03:49:00;36.00;;;5.90;;
55720;SDS011;41626;53.098;6.168;2022-09-29T03:51:25;44.63;;;6.18;;
55720;SDS011;41626;53.098;6.168;2022-09-29T03:53:51;58.58;;;7.05;;
55720;SDS011;41626;53.098;6.168;2022-09-29T03:56:18;24.13;;;4.53;;
55720;SDS011;41626;53.098;6.168;2022-09-29T03:58:44;23.05;;;5.30;;
55720;SDS011;41626;53.098;6.168;2022-09-29T04:01:09;51.45;;;7.35;;
55720;SDS011;41626;53.098;6.168;2022-09-29T04:03:35;37.63;;;4.90;;
55720;SDS011;41626;53.098;6.168;2022-09-29T04:06:00;47.05;;;6.80;;
55720;SDS011;41626;53.098;6.168;2022-09-29T04:08:26;35.97;;;5.63;;
55720;SDS011;41626;53.098;6.168;2022-09-29T04:10:52;33.50;;;7.05;;
55720;SDS011;41626;53.098;6.168;2022-09-29T04:13:17;78.10;;;8.93;;
55720;SDS011;41626;53.098;6.168;2022-09-29T04:15:43;68.43;;;8.55;;
55720;SDS011;41626;53.098;6.168;2022-09-29T04:18:08;66.93;;;9.18;;
55720;SDS011;41626;53.098;6.168;2022-09-29T04:20:34;25.23;;;6.15;;
55720;SDS011;41626;53.098;6.168;2022-09-29T04:23:02;46.25;;;9.50;;
55720;SDS011;41626;53.098;6.168;2022-09-29T04:25:28;22.95;;;6.75;;
55720;SDS011;41626;53.098;6.168;2022-09-29T04:27:54;19.95;;;7.25;;
55720;SDS011;41626;53.098;6.168;2022-09-29T04:30:19;16.83;;;4.93;;
55720;SDS011;41626;53.098;6.168;2022-09-29T04:32:45;7.30;;;6.25;;
55720;SDS011;41626;53.098;6.168;2022-09-29T04:35:11;15.75;;;5.85;;
55720;SDS011;41626;53.098;6.168;2022-09-29T04:37:36;13.18;;;6.13;;
55720;SDS011;41626;53.098;6.168;2022-09-29T04:40:03;28.60;;;6.70;;
55720;SDS011;41626;53.098;6.168;2022-09-29T04:42:29;12.60;;;5.22;;
55720;SDS011;41626;53.098;6.168;2022-09-29T04:44:55;7.40;;;5.25;;
55720;SDS011;41626;53.098;6.168;2022-09-29T04:47:20;17.58;;;5.57;;
55720;SDS011;41626;53.098;6.168;2022-09-29T04:49:46;8.75;;;6.18;;
55720;SDS011;41626;53.098;6.168;2022-09-29T04:52:12;6.10;;;5.50;;
55720;SDS011;41626;53.098;6.168;2022-09-29T04:54:38;9.57;;;6.15;;
55720;SDS011;41626;53.098;6.168;2022-09-29T04:57:04;7.13;;;5.45;;
55720;SDS011;41626;53.098;6.168;2022-09-29T04:59:31;7.95;;;6.82;;
55720;SDS011;41626;53.098;6.168;2022-09-29T05:01:57;6.38;;;5.60;;
55720;SDS011;41626;53.098;6.168;2022-09-29T05:04:23;6.68;;;6.00;;
55720;SDS011;41626;53.098;6.168;2022-09-29T05:06:49;8.10;;;6.47;;
55720;SDS011;41626;53.098;6.168;2022-09-29T05:09:14;6.30;;;5.70;;
55720;SDS011;41626;53.098;6.168;2022-09-29T05:11:40;5.25;;;4.80;;
55720;SDS011;41626;53.098;6.168;2022-09-29T05:14:06;6.60;;;5.90;;
55720;SDS011;41626;53.098;6.168;2022-09-29T05:16:31;6.65;;;5.80;;
55720;SDS011;41626;53.098;6.168;2022-09-29T05:18:57;5.88;;;5.25;;
55720;SDS011;41626;53.098;6.168;2022-09-29T05:21:23;6.30;;;4.60;;
55720;SDS011;41626;53.098;6.168;2022-09-29T05:23:49;6.50;;;5.88;;
55720;SDS011;41626;53.098;6.168;2022-09-29T05:26:15;6.63;;;5.50;;
55720;SDS011;41626;53.098;6.168;2022-09-29T05:28:44;7.75;;;6.43;;
55720;SDS011;41626;53.098;6.168;2022-09-29T05:31:11;25.55;;;7.25;;
55720;SDS011;41626;53.098;6.168;2022-09-29T05:33:38;32.08;;;7.30;;
55720;SDS011;41626;53.098;6.168;2022-09-29T05:36:05;6.50;;;5.88;;
55720;SDS011;41626;53.098;6.168;2022-09-29T05:38:33;6.13;;;5.00;;
55720;SDS011;41626;53.098;6.168;2022-09-29T05:41:03;7.15;;;6.45;;
55720;SDS011;41626;53.098;6.168;2022-09-29T05:43:30;5.88;;;5.38;;
55720;SDS011;41626;53.098;6.168;2022-09-29T05:46:02;6.88;;;5.93;;
55720;SDS011;41626;53.098;6.168;2022-09-29T05:48:29;7.90;;;6.32;;
55720;SDS011;41626;53.098;6.168;2022-09-29T05:50:56;8.70;;;6.03;;
55720;SDS011;41626;53.098;6.168;2022-09-29T05:53:22;7.75;;;6.18;;
55720;SDS011;41626;53.098;6.168;2022-09-29T05:55:48;7.07;;;6.38;;
55720;SDS011;41626;53.098;6.168;2022-09-29T05:58:14;8.40;;;6.28;;
55720;SDS011;41626;53.098;6.168;2022-09-29T06:00:40;6.25;;;5.65;;
55720;SDS011;41626;53.098;6.168;2022-09-29T06:03:06;6.35;;;5.75;;
55720;SDS011;41626;53.098;6.168;2022-09-29T06:05:32;7.55;;;6.70;;
55720;SDS011;41626;53.098;6.168;2022-09-29T06:08:02;8.50;;;6.75;;
55720;SDS011;41626;53.098;6.168;2022-09-29T06:10:28;6.88;;;6.13;;
55720;SDS011;41626;53.098;6.168;2022-09-29T06:12:54;8.07;;;6.40;;
55720;SDS011;41626;53.098;6.168;2022-09-29T06:15:21;14.15;;;8.20;;
55720;SDS011;41626;53.098;6.168;2022-09-29T06:17:47;6.88;;;6.18;;
55720;SDS011;41626;53.098;6.168;2022-09-29T06:20:19;9.73;;;7.07;;
55720;SDS011;41626;53.098;6.168;2022-09-29T06:22:45;7.00;;;6.30;;
55720;SDS011;41626;53.098;6.168;2022-09-29T06:25:12;7.20;;;6.15;;
55720;SDS011;41626;53.098;6.168;2022-09-29T06:27:38;8.90;;;6.80;;
55720;SDS011;41626;53.098;6.168;2022-09-29T06:30:04;7.00;;;6.30;;
55720;SDS011;41626;53.098;6.168;2022-09-29T06:32:30;8.07;;;7.28;;
55720;SDS011;41626;53.098;6.168;2022-09-29T06:34:58;8.18;;;7.38;;
55720;SDS011;41626;53.098;6.168;2022-09-29T06:37:42;12.70;;;8.82;;
55720;SDS011;41626;53.098;6.168;2022-09-29T06:40:10;9.20;;;7.35;;
55720;SDS011;41626;53.098;6.168;2022-09-29T06:42:36;9.25;;;8.35;;
55720;SDS011;41626;53.098;6.168;2022-09-29T06:45:02;8.82;;;7.93;;
55720;SDS011;41626;53.098;6.168;2022-09-29T06:47:28;12.80;;;9.70;;
55720;SDS011;41626;53.098;6.168;2022-09-29T06:49:54;9.30;;;8.23;;
55720;SDS011;41626;53.098;6.168;2022-09-29T06:52:22;9.15;;;8.25;;
55720;SDS011;41626;53.098;6.168;2022-09-29T06:54:47;8.93;;;7.85;;
55720;SDS011;41626;53.098;6.168;2022-09-29T06:57:13;9.68;;;8.77;;
55720;SDS011;41626;53.098;6.168;2022-09-29T06:59:39;10.13;;;9.00;;
55720;SDS011;41626;53.098;6.168;2022-09-29T07:02:04;10.93;;;9.75;;
55720;SDS011;41626;53.098;6.168;2022-09-29T07:04:30;11.02;;;9.73;;
55720;SDS011;41626;53.098;6.168;2022-09-29T07:06:56;11.70;;;10.50;;
55720;SDS011;41626;53.098;6.168;2022-09-29T07:09:22;10.57;;;9.48;;
55720;SDS011;41626;53.098;6.168;2022-09-29T07:11:48;11.18;;;10.02;;
55720;SDS011;41626;53.098;6.168;2022-09-29T07:14:16;10.65;;;9.55;;
55720;SDS011;41626;53.098;6.168;2022-09-29T07:16:46;12.77;;;11.50;;
55720;SDS011;41626;53.098;6.168;2022-09-29T07:19:12;12.13;;;10.48;;
55720;SDS011;41626;53.098;6.168;2022-09-29T07:21:39;10.70;;;9.70;;
55720;SDS011;41626;53.098;6.168;2022-09-29T07:24:04;10.38;;;9.38;;
55720;SDS011;41626;53.098;6.168;2022-09-29T07:26:31;11.68;;;9.70;;
55720;SDS011;41626;53.098;6.168;2022-09-29T07:28:57;10.65;;;8.75;;
55720;SDS011;41626;53.098;6.168;2022-09-29T07:31:22;11.65;;;10.48;;
55720;SDS011;41626;53.098;6.168;2022-09-29T07:33:48;12.65;;;11.25;;
55720;SDS011;41626;53.098;6.168;2022-09-29T07:36:16;15.38;;;11.50;;
55720;SDS011;41626;53.098;6.168;2022-09-29T07:38:49;14.32;;;12.45;;
55720;SDS011;41626;53.098;6.168;2022-09-29T07:41:16;13.45;;;11.52;;
55720;SDS011;41626;53.098;6.168;2022-09-29T07:43:43;13.55;;;11.85;;
55720;SDS011;41626;53.098;6.168;2022-09-29T07:46:09;14.23;;;11.90;;
55720;SDS011;41626;53.098;6.168;2022-09-29T07:48:35;18.75;;;14.65;;
55720;SDS011;41626;53.098;6.168;2022-09-29T07:51:03;12.80;;;11.40;;
55720;SDS011;41626;53.098;6.168;2022-09-29T07:53:34;18.00;;;13.05;;
55720;SDS011;41626;53.098;6.168;2022-09-29T07:56:22;17.08;;;14.10;;
55720;SDS011;41626;53.098;6.168;2022-09-29T07:58:47;15.77;;;14.07;;
55720;SDS011;41626;53.098;6.168;2022-09-29T08:01:14;16.70;;;12.88;;
55720;SDS011;41626;53.098;6.168;2022-09-29T08:03:43;16.50;;;14.77;;
55720;SDS011;41626;53.098;6.168;2022-09-29T08:06:13;14.18;;;12.88;;
55720;SDS011;41626;53.098;6.168;2022-09-29T08:08:39;15.68;;;13.57;;
55720;SDS011;41626;53.098;6.168;2022-09-29T08:11:10;19.98;;;15.45;;
55720;SDS011;41626;53.098;6.168;2022-09-29T08:13:37;16.25;;;13.52;;
55720;SDS011;41626;53.098;6.168;2022-09-29T08:16:04;23.67;;;13.40;;
55720;SDS011;41626;53.098;6.168;2022-09-29T08:18:32;17.42;;;12.50;;
55720;SDS011;41626;53.098;6.168;2022-09-29T08:20:59;15.38;;;13.77;;
55720;SDS011;41626;53.098;6.168;2022-09-29T08:23:25;17.73;;;14.27;;
55720;SDS011;41626;53.098;6.168;2022-09-29T08:26:00;16.48;;;13.25;;
55720;SDS011;41626;53.098;6.168;2022-09-29T08:28:34;15.98;;;13.15;;
55720;SDS011;41626;53.098;6.168;2022-09-29T08:31:02;20.58;;;16.77;;
55720;SDS011;41626;53.098;6.168;2022-09-29T08:33:28;17.40;;;15.18;;
55720;SDS011;41626;53.098;6.168;2022-09-29T08:35:55;20.08;;;15.10;;
55720;SDS011;41626;53.098;6.168;2022-09-29T08:38:22;19.95;;;17.58;;
55720;SDS011;41626;53.098;6.168;2022-09-29T08:40:49;27.27;;;17.55;;
55720;SDS011;41626;53.098;6.168;2022-09-29T08:43:19;18.75;;;15.82;;
55720;SDS011;41626;53.098;6.168;2022-09-29T08:45:48;18.70;;;15.90;;
55720;SDS011;41626;53.098;6.168;2022-09-29T08:48:22;24.15;;;17.95;;
55720;SDS011;41626;53.098;6.168;2022-09-29T08:53:18;22.90;;;18.15;;
55720;SDS011;41626;53.098;6.168;2022-09-29T08:55:47;21.05;;;16.35;;
55720;SDS011;41626;53.098;6.168;2022-09-29T08:58:19;21.33;;;17.25;;
55720;SDS011;41626;53.098;6.168;2022-09-29T09:00:49;24.33;;;18.50;;
55720;SDS011;41626;53.098;6.168;2022-09-29T09:04:30;17.83;;;15.93;;
55720;SDS011;41626;53.098;6.168;2022-09-29T09:09:48;19.05;;;14.93;;
55720;SDS011;41626;53.098;6.168;2022-09-29T09:26:12;16.08;;;11.07;;
55720;SDS011;41626;53.098;6.168;2022-09-29T09:28:47;8.80;;;7.70;;
55720;SDS011;41626;53.098;6.168;2022-09-29T09:31:24;17.27;;;9.13;;
55720;SDS011;41626;53.098;6.168;2022-09-29T09:34:13;9.40;;;7.70;;
55720;SDS011;41626;53.098;6.168;2022-09-29T09:37:01;10.05;;;6.28;;
55720;SDS011;41626;53.098;6.168;2022-09-29T09:41:59;7.03;;;6.32;;
55720;SDS011;41626;53.098;6.168;2022-09-29T09:44:45;7.22;;;6.03;;
55720;SDS011;41626;53.098;6.168;2022-09-29T09:47:25;9.32;;;6.88;;
55720;SDS011;41626;53.098;6.168;2022-09-29T09:50:07;7.72;;;6.40;;
55720;SDS011;41626;53.098;6.168;2022-09-29T09:52:40;9.75;;;7.38;;
55720;SDS011;41626;53.098;6.168;2022-09-29T09:55:26;8.63;;;5.93;;
55720;SDS011;41626;53.098;6.168;2022-09-29T10:00:59;6.82;;;5.90;;
55720;SDS011;41626;53.098;6.168;2022-09-29T10:03:27;3.97;;;3.60;;
55720;SDS011;41626;53.098;6.168;2022-09-29T10:05:53;4.97;;;4.20;;
55720;SDS011;41626;53.098;6.168;2022-09-29T10:08:24;5.45;;;4.47;;
55720;SDS011;41626;53.098;6.168;2022-09-29T10:11:14;6.07;;;4.45;;
55720;SDS011;41626;53.098;6.168;2022-09-29T10:13:42;3.47;;;3.17;;
55720;SDS011;41626;53.098;6.168;2022-09-29T10:18:41;4.20;;;3.80;;
55720;SDS011;41626;53.098;6.168;2022-09-29T10:24:19;3.88;;;2.90;;
55720;SDS011;41626;53.098;6.168;2022-09-29T10:26:47;3.75;;;2.33;;
55720;SDS011;41626;53.098;6.168;2022-09-29T10:29:21;4.13;;;2.78;;
55720;SDS011;41626;53.098;6.168;2022-09-29T10:35:08;4.75;;;3.60;;
55720;SDS011;41626;53.098;6.168;2022-09-29T10:38:00;4.15;;;3.75;;
55720;SDS011;41626;53.098;6.168;2022-09-29T10:40:30;5.18;;;3.92;;
55720;SDS011;41626;53.098;6.168;2022-09-29T10:42:56;4.45;;;3.83;;
55720;SDS011;41626;53.098;6.168;2022-09-29T10:45:26;6.20;;;3.05;;
55720;SDS011;41626;53.098;6.168;2022-09-29T10:50:26;3.25;;;2.88;;
55720;SDS011;41626;53.098;6.168;2022-09-29T10:53:03;3.65;;;2.75;;
55720;SDS011;41626;53.098;6.168;2022-09-29T10:55:46;4.63;;;2.83;;
55720;SDS011;41626;53.098;6.168;2022-09-29T11:01:14;2.70;;;1.60;;
55720;SDS011;41626;53.098;6.168;2022-09-29T11:06:35;5.32;;;2.53;;
55720;SDS011;41626;53.098;6.168;2022-09-29T11:09:04;5.75;;;2.42;;
55720;SDS011;41626;53.098;6.168;2022-09-29T11:11:37;4.93;;;1.60;;
55720;SDS011;41626;53.098;6.168;2022-09-29T11:14:24;4.70;;;2.15;;
55720;SDS011;41626;53.098;6.168;2022-09-29T11:17:05;3.50;;;1.88;;
55720;SDS011;41626;53.098;6.168;2022-09-29T11:19:52;5.63;;;1.70;;
55720;SDS011;41626;53.098;6.168;2022-09-29T11:25:17;3.78;;;1.42;;
55720;SDS011;41626;53.098;6.168;2022-09-29T11:31:18;1.88;;;1.45;;
55720;SDS011;41626;53.098;6.168;2022-09-29T11:33:48;2.95;;;1.23;;
55720;SDS011;41626;53.098;6.168;2022-09-29T11:36:49;1.92;;;1.15;;
55720;SDS011;41626;53.098;6.168;2022-09-29T11:42:17;3.38;;;1.23;;
55720;SDS011;41626;53.098;6.168;2022-09-29T11:47:33;1.75;;;1.40;;
55720;SDS011;41626;53.098;6.168;2022-09-29T11:50:33;5.00;;;1.90;;
55720;SDS011;41626;53.098;6.168;2022-09-29T11:59:05;1.60;;;0.77;;
55720;SDS011;41626;53.098;6.168;2022-09-29T12:09:57;1.77;;;0.80;;
55720;SDS011;41626;53.098;6.168;2022-09-29T12:12:47;3.80;;;1.30;;
55720;SDS011;41626;53.098;6.168;2022-09-29T12:21:26;1.05;;;0.80;;
55720;SDS011;41626;53.098;6.168;2022-09-29T12:24:08;2.13;;;1.00;;
55720;SDS011;41626;53.098;6.168;2022-09-29T12:26:39;1.05;;;0.75;;
55720;SDS011;41626;53.098;6.168;2022-09-29T12:29:11;2.28;;;0.70;;
55720;SDS011;41626;53.098;6.168;2022-09-29T12:31:47;0.40;;;0.35;;
55720;SDS011;41626;53.098;6.168;2022-09-29T12:34:25;1.05;;;0.68;;
55720;SDS011;41626;53.098;6.168;2022-09-29T12:36:56;1.63;;;1.00;;
55720;SDS011;41626;53.098;6.168;2022-09-29T12:45:02;3.00;;;1.30;;
55720;SDS011;41626;53.098;6.168;2022-09-29T12:50:30;0.90;;;0.52;;
55720;SDS011;41626;53.098;6.168;2022-09-29T12:53:07;0.60;;;0.40;;
55720;SDS011;41626;53.098;6.168;2022-09-29T12:55:59;2.33;;;0.70;;
55720;SDS011;41626;53.098;6.168;2022-09-29T12:58:51;1.95;;;0.50;;
55720;SDS011;41626;53.098;6.168;2022-09-29T13:01:27;0.75;;;0.43;;
55720;SDS011;41626;53.098;6.168;2022-09-29T13:04:22;0.35;;;0.25;;
55720;SDS011;41626;53.098;6.168;2022-09-29T13:18:43;0.60;;;0.50;;
55720;SDS011;41626;53.098;6.168;2022-09-29T13:21:40;1.45;;;0.80;;
55720;SDS011;41626;53.098;6.168;2022-09-29T13:29:44;0.45;;;0.45;;
55720;SDS011;41626;53.098;6.168;2022-09-29T13:32:14;0.88;;;0.60;;
55720;SDS011;41626;53.098;6.168;2022-09-29T13:34:44;1.42;;;0.85;;
55720;SDS011;41626;53.098;6.168;2022-09-29T13:37:19;2.55;;;0.50;;
55720;SDS011;41626;53.098;6.168;2022-09-29T13:42:45;0.77;;;0.57;;
55720;SDS011;41626;53.098;6.168;2022-09-29T13:47:45;1.42;;;1.20;;
55720;SDS011;41626;53.098;6.168;2022-09-29T13:58:33;2.85;;;1.63;;
55720;SDS011;41626;53.098;6.168;2022-09-29T14:01:03;3.17;;;0.90;;
55720;SDS011;41626;53.098;6.168;2022-09-29T14:03:31;2.47;;;1.20;;
55720;SDS011;41626;53.098;6.168;2022-09-29T14:11:35;2.58;;;0.82;;
55720;SDS011;41626;53.098;6.168;2022-09-29T14:14:28;1.67;;;1.13;;
55720;SDS011;41626;53.098;6.168;2022-09-29T14:32:58;5.38;;;2.03;;
55720;SDS011;41626;53.098;6.168;2022-09-29T14:35:39;7.65;;;3.55;;
55720;SDS011;41626;53.098;6.168;2022-09-29T14:38:23;7.60;;;2.20;;
55720;SDS011;41626;53.098;6.168;2022-09-29T14:40:57;6.47;;;2.83;;
55720;SDS011;41626;53.098;6.168;2022-09-29T14:55:14;4.47;;;3.00;;
55720;SDS011;41626;53.098;6.168;2022-09-29T15:00:33;32.20;;;4.57;;
55720;SDS011;41626;53.098;6.168;2022-09-29T15:03:25;8.70;;;4.13;;
55720;SDS011;41626;53.098;6.168;2022-09-29T15:08:30;10.20;;;3.97;;
55720;SDS011;41626;53.098;6.168;2022-09-29T15:10:58;2.55;;;2.33;;
55720;SDS011;41626;53.098;6.168;2022-09-29T15:13:24;6.57;;;2.63;;
55720;SDS011;41626;53.098;6.168;2022-09-29T15:16:04;4.22;;;2.50;;
55720;SDS011;41626;53.098;6.168;2022-09-29T15:18:46;3.50;;;1.83;;
55720;SDS011;41626;53.098;6.168;2022-09-29T15:26:54;5.32;;;2.33;;
55720;SDS011;41626;53.098;6.168;2022-09-29T15:29:19;2.90;;;2.00;;
55720;SDS011;41626;53.098;6.168;2022-09-29T15:31:45;2.63;;;2.13;;
55720;SDS011;41626;53.098;6.168;2022-09-29T15:34:16;2.78;;;1.50;;
55720;SDS011;41626;53.098;6.168;2022-09-29T15:36:49;4.55;;;1.70;;
55720;SDS011;41626;53.098;6.168;2022-09-29T15:41:59;9.25;;;3.30;;
55720;SDS011;41626;53.098;6.168;2022-09-29T15:44:39;2.60;;;1.63;;
55720;SDS011;41626;53.098;6.168;2022-09-29T15:47:20;2.83;;;2.10;;
55720;SDS011;41626;53.098;6.168;2022-09-29T15:50:22;2.70;;;2.20;;
55720;SDS011;41626;53.098;6.168;2022-09-29T15:52:50;3.28;;;1.58;;
55720;SDS011;41626;53.098;6.168;2022-09-29T15:55:18;2.25;;;1.70;;
55720;SDS011;41626;53.098;6.168;2022-09-29T15:57:47;5.10;;;1.17;;
55720;SDS011;41626;53.098;6.168;2022-09-29T16:05:21;4.82;;;3.08;;
55720;SDS011;41626;53.098;6.168;2022-09-29T16:08:05;5.22;;;2.38;;
55720;SDS011;41626;53.098;6.168;2022-09-29T16:10:47;3.38;;;3.05;;
55720;SDS011;41626;53.098;6.168;2022-09-29T16:13:20;6.05;;;4.00;;
55720;SDS011;41626;53.098;6.168;2022-09-29T16:15:49;6.32;;;1.95;;
55720;SDS011;41626;53.098;6.168;2022-09-29T16:20:44;3.72;;;2.78;;
55720;SDS011;41626;53.098;6.168;2022-09-29T16:25:44;4.93;;;1.50;;
55720;SDS011;41626;53.098;6.168;2022-09-29T16:28:23;6.45;;;2.15;;
55720;SDS011;41626;53.098;6.168;2022-09-29T16:31:01;1.83;;;1.48;;
55720;SDS011;41626;53.098;6.168;2022-09-29T16:33:42;3.95;;;1.60;;
55720;SDS011;41626;53.098;6.168;2022-09-29T16:36:14;2.42;;;1.05;;
55720;SDS011;41626;53.098;6.168;2022-09-29T16:38:44;1.20;;;0.57;;
55720;SDS011;41626;53.098;6.168;2022-09-29T16:41:25;1.08;;;0.50;;
55720;SDS011;41626;53.098;6.168;2022-09-29T16:44:32;3.85;;;1.25;;
55720;SDS011;41626;53.098;6.168;2022-09-29T16:49:32;1.85;;;0.80;;
55720;SDS011;41626;53.098;6.168;2022-09-29T16:52:23;0.95;;;0.85;;
55720;SDS011;41626;53.098;6.168;2022-09-29T16:54:50;1.63;;;1.30;;
55720;SDS011;41626;53.098;6.168;2022-09-29T16:57:18;4.85;;;2.03;;
55720;SDS011;41626;53.098;6.168;2022-09-29T16:59:45;6.40;;;3.92;;
55720;SDS011;41626;53.098;6.168;2022-09-29T17:02:14;6.03;;;3.97;;
55720;SDS011;41626;53.098;6.168;2022-09-29T17:04:40;4.45;;;4.00;;
55720;SDS011;41626;53.098;6.168;2022-09-29T17:07:07;5.20;;;4.70;;
55720;SDS011;41626;53.098;6.168;2022-09-29T17:09:37;6.28;;;4.10;;
55720;SDS011;41626;53.098;6.168;2022-09-29T17:12:03;5.55;;;4.28;;
55720;SDS011;41626;53.098;6.168;2022-09-29T17:14:28;5.65;;;4.28;;
55720;SDS011;41626;53.098;6.168;2022-09-29T17:16:55;5.53;;;4.85;;
55720;SDS011;41626;53.098;6.168;2022-09-29T17:19:21;8.32;;;4.90;;
55720;SDS011;41626;53.098;6.168;2022-09-29T17:21:47;9.40;;;5.78;;
55720;SDS011;41626;53.098;6.168;2022-09-29T17:24:13;7.50;;;5.85;;
55720;SDS011;41626;53.098;6.168;2022-09-29T17:26:39;9.52;;;8.35;;
55720;SDS011;41626;53.098;6.168;2022-09-29T17:29:26;12.95;;;8.23;;
55720;SDS011;41626;53.098;6.168;2022-09-29T17:31:53;11.13;;;6.63;;
55720;SDS011;41626;53.098;6.168;2022-09-29T17:34:18;10.23;;;5.80;;
55720;SDS011;41626;53.098;6.168;2022-09-29T17:36:49;9.02;;;5.88;;
55720;SDS011;41626;53.098;6.168;2022-09-29T17:39:16;8.02;;;6.72;;
55720;SDS011;41626;53.098;6.168;2022-09-29T17:41:41;9.07;;;5.90;;
55720;SDS011;41626;53.098;6.168;2022-09-29T17:44:07;5.05;;;4.47;;
55720;SDS011;41626;53.098;6.168;2022-09-29T17:46:33;3.45;;;2.88;;
55720;SDS011;41626;53.098;6.168;2022-09-29T17:49:01;6.13;;;4.70;;
55720;SDS011;41626;53.098;6.168;2022-09-29T17:51:28;6.65;;;4.20;;
55720;SDS011;41626;53.098;6.168;2022-09-29T17:53:53;4.53;;;3.17;;
55720;SDS011;41626;53.098;6.168;2022-09-29T17:56:20;6.38;;;4.18;;
55720;SDS011;41626;53.098;6.168;2022-09-29T18:01:16;5.28;;;4.60;;
55720;SDS011;41626;53.098;6.168;2022-09-29T18:03:44;9.82;;;7.38;;
55720;SDS011;41626;53.098;6.168;2022-09-29T18:06:12;5.85;;;5.35;;
55720;SDS011;41626;53.098;6.168;2022-09-29T18:08:45;4.40;;;3.75;;
55720;SDS011;41626;53.098;6.168;2022-09-29T18:11:15;16.42;;;3.22;;
55720;SDS011;41626;53.098;6.168;2022-09-29T18:13:42;5.35;;;1.90;;
55720;SDS011;41626;53.098;6.168;2022-09-29T18:16:12;3.90;;;1.70;;
55720;SDS011;41626;53.098;6.168;2022-09-29T18:18:40;4.60;;;2.60;;
55720;SDS011;41626;53.098;6.168;2022-09-29T18:21:06;4.28;;;3.80;;
55720;SDS011;41626;53.098;6.168;2022-09-29T18:23:32;4.22;;;3.40;;
55720;SDS011;41626;53.098;6.168;2022-09-29T18:25:59;7.97;;;6.68;;
55720;SDS011;41626;53.098;6.168;2022-09-29T18:28:25;10.77;;;8.60;;
55720;SDS011;41626;53.098;6.168;2022-09-29T18:31:34;15.98;;;13.15;;